Time;durP1;ratioP1;P1;durP2;ratioP2;P2;SDS_P1;SDS_P2;PMS_P1;PMS_P2;Temp;Humidity;BMP_temperature;BMP_pressure;BME280_temperature;BME280_humidity;BME280_pressure;Samples;Min_cycle;Max_cycle;Signal;HPM_P1;HPM_P2
2023/12/26 00:01:08;;;;;;;;;;;10.10;99.90;;;;;;5057903;28;20386;-78
2023/12/26 00:03:33;;;;;;;;;;;10.10;99.90;;;;;;5075639;28;19962;-75
2023/12/26 00:05:59;;;;;;;;;;;10.10;99.90;;;;;;5073043;28;20003;-79
2023/12/26 00:08:24;;;;;;;;;;;10.10;99.90;;;;;;5077473;28;20382;-76
2023/12/26 00:10:50;;;;;;;;;;;10.20;99.90;;;;;;5055766;28;19912;-79
2023/12/26 00:13:15;;;;;;;;;;;10.10;99.90;;;;;;5037744;28;19919;-75
2023/12/26 00:15:41;;;;;;;;;;;10.10;99.90;;;;;;5037713;28;19932;-75
2023/12/26 00:18:06;;;;;;;;;;;10.10;99.90;;;;;;5037578;28;19909;-75
2023/12/26 00:20:32;;;;;;;;;;;10.20;99.90;;;;;;5037472;28;19909;-79
2023/12/26 00:22:57;;;;;;;;;;;10.20;99.90;;;;;;5055284;28;19909;-75
2023/12/26 00:25:23;;;;;;;;;;;10.10;99.90;;;;;;5056417;28;20375;-75
2023/12/26 00:27:48;;;;;;;;;;;10.10;99.90;;;;;;5075451;28;19908;-75
2023/12/26 00:30:14;;;;;;;;;;;10.10;99.90;;;;;;5057007;28;20030;-79
2023/12/26 00:32:39;;;;;;;;;;;10.00;99.90;;;;;;5057020;28;20019;-75
2023/12/26 00:35:05;;;;;;;;;;;9.90;99.90;;;;;;5076013;28;19966;-79
2023/12/26 00:37:31;;;;;;;;;;;9.90;99.90;;;;;;5095176;28;19912;-75
2023/12/26 00:39:57;;;;;;;;;;;10.00;99.90;;;;;;5076684;28;19912;-75
2023/12/26 00:42:22;;;;;;;;;;;10.00;99.90;;;;;;5077027;28;19908;-79
2023/12/26 00:44:48;;;;;;;;;;;10.00;99.90;;;;;;5076117;28;20348;-75
2023/12/26 00:47:13;;;;;;;;;;;9.90;99.90;;;;;;5076233;28;19915;-75
2023/12/26 00:49:39;;;;;;;;;;;10.00;99.90;;;;;;5076908;28;19982;-75
2023/12/26 00:52:04;;;;;;;;;;;10.00;99.90;;;;;;5076876;28;20437;-76
2023/12/26 00:54:30;;;;;;;;;;;10.00;99.90;;;;;;5076733;28;20013;-75
2023/12/26 00:56:56;;;;;;;;;;;9.90;99.90;;;;;;5094319;28;20373;-75
2023/12/26 00:59:21;;;;;;;;;;;9.90;99.90;;;;;;5076749;28;20363;-75
2023/12/26 01:01:47;;;;;;;;;;;9.90;99.90;;;;;;5076881;28;19908;-75
2023/12/26 01:04:12;;;;;;;;;;;9.90;99.90;;;;;;5077279;28;19915;-79
2023/12/26 01:06:38;;;;;;;;;;;9.90;99.90;;;;;;5076952;28;19912;-75
2023/12/26 01:09:03;;;;;;;;;;;9.90;99.90;;;;;;5067601;28;19915;-75
2023/12/26 01:11:29;;;;;;;;;;;9.90;99.90;;;;;;5053183;28;19913;-75
2023/12/26 01:13:54;;;;;;;;;;;9.90;99.90;;;;;;5053234;28;19959;-75
2023/12/26 01:16:22;;;;;;;;;;;9.90;99.90;;;;;;5036572;28;19909;-75
2023/12/26 01:18:47;;;;;;;;;;;9.90;99.90;;;;;;5053025;28;19909;-75
2023/12/26 01:21:13;;;;;;;;;;;9.90;99.90;;;;;;5052924;28;20011;-79
2023/12/26 01:23:39;;;;;;;;;;;9.90;99.90;;;;;;5053554;28;19917;-79
2023/12/26 01:26:04;;;;;;;;;;;9.90;99.90;;;;;;5063098;28;20388;-79
2023/12/26 01:28:30;;;;;;;;;;;9.90;99.90;;;;;;5039051;28;19958;-75
2023/12/26 01:30:55;;;;;;;;;;;10.00;99.90;;;;;;5055916;28;19921;-79
2023/12/26 01:33:21;;;;;;;;;;;10.20;99.90;;;;;;5074517;28;19908;-75
2023/12/26 01:35:47;;;;;;;;;;;10.30;99.90;;;;;;5055933;28;19917;-80
2023/12/26 01:38:13;;;;;;;;;;;10.30;99.90;;;;;;5055800;28;19908;-75
2023/12/26 01:40:40;;;;;;;;;;;10.40;99.90;;;;;;5055817;28;20422;-75
2023/12/26 01:43:06;;;;;;;;;;;10.30;99.90;;;;;;5055814;28;19936;-79
2023/12/26 01:45:32;;;;;;;;;;;10.30;99.90;;;;;;5056008;28;19913;-75
2023/12/26 01:47:59;;;;;;;;;;;10.30;99.90;;;;;;5055659;28;20344;-75
2023/12/26 01:50:25;;;;;;;;;;;10.30;99.90;;;;;;5055274;28;19982;-79
2023/12/26 01:52:51;;;;;;;;;;;10.30;99.90;;;;;;5055972;28;19919;-75
2023/12/26 01:55:17;;;;;;;;;;;10.30;99.90;;;;;;5055561;28;19913;-77
2023/12/26 01:57:43;;;;;;;;;;;10.20;99.90;;;;;;5073821;28;19912;-75
2023/12/26 02:00:09;;;;;;;;;;;10.30;99.90;;;;;;5055722;28;19954;-76
2023/12/26 02:02:34;;;;;;;;;;;10.30;99.90;;;;;;5055886;28;19936;-79
2023/12/26 02:05:01;;;;;;;;;;;10.30;99.90;;;;;;5062985;28;19915;-75
2023/12/26 02:07:27;;;;;;;;;;;10.30;99.90;;;;;;5075747;28;20386;-75
2023/12/26 02:09:52;;;;;;;;;;;10.30;99.90;;;;;;5063328;28;19954;-79
2023/12/26 02:12:18;;;;;;;;;;;10.30;99.90;;;;;;5055446;28;20392;-75
2023/12/26 02:14:45;;;;;;;;;;;10.30;99.90;;;;;;5074147;28;20294;-75
2023/12/26 02:17:17;;;;;;;;;;;10.20;99.90;;;;;;5056434;28;20387;-75
2023/12/26 02:19:43;;;;;;;;;;;10.20;99.90;;;;;;5055654;28;19909;-75
2023/12/26 02:22:08;;;;;;;;;;;10.10;99.90;;;;;;5055615;28;19916;-76
2023/12/26 02:24:34;;;;;;;;;;;10.10;99.90;;;;;;5069217;28;19947;-76
2023/12/26 02:27:00;;;;;;;;;;;10.00;99.90;;;;;;5043417;28;19916;-79
2023/12/26 02:29:25;;;;;;;;;;;9.90;99.90;;;;;;5046378;28;20353;-75
2023/12/26 02:31:53;;;;;;;;;;;9.70;99.90;;;;;;5051861;28;19921;-79
2023/12/26 02:34:19;;;;;;;;;;;9.50;99.90;;;;;;5053654;28;19916;-75
2023/12/26 02:36:45;;;;;;;;;;;9.40;99.90;;;;;;5066471;28;19909;-75
2023/12/26 02:39:10;;;;;;;;;;;9.30;99.90;;;;;;5071778;28;19916;-79
2023/12/26 02:41:36;;;;;;;;;;;9.20;99.90;;;;;;5073297;28;19912;-75
2023/12/26 02:44:01;;;;;;;;;;;9.10;99.90;;;;;;5072101;28;19931;-79
2023/12/26 02:46:27;;;;;;;;;;;9.20;99.90;;;;;;5072463;28;20003;-76
2023/12/26 02:48:52;;;;;;;;;;;9.10;99.90;;;;;;5073293;28;19961;-75
2023/12/26 02:51:18;;;;;;;;;;;9.10;99.90;;;;;;5073403;28;20298;-75
2023/12/26 02:53:44;;;;;;;;;;;9.10;99.90;;;;;;5072061;28;19997;-79
2023/12/26 02:56:09;;;;;;;;;;;9.00;99.90;;;;;;5073238;28;19974;-79
2023/12/26 02:58:36;;;;;;;;;;;9.00;99.90;;;;;;5073124;28;20007;-76
2023/12/26 03:01:01;;;;;;;;;;;8.90;99.90;;;;;;5071720;28;19916;-75
2023/12/26 03:03:27;;;;;;;;;;;8.90;99.90;;;;;;5073419;28;19908;-75
2023/12/26 03:05:52;;;;;;;;;;;8.90;99.90;;;;;;5071118;28;19981;-75
2023/12/26 03:08:18;;;;;;;;;;;8.80;99.90;;;;;;5074011;28;19947;-75
2023/12/26 03:10:43;;;;;;;;;;;8.80;99.90;;;;;;5057501;28;20360;-75
2023/12/26 03:13:08;;;;;;;;;;;8.70;99.90;;;;;;5055373;28;19909;-75
2023/12/26 03:15:34;;;;;;;;;;;8.70;99.90;;;;;;5055576;28;19951;-75
2023/12/26 03:18:00;;;;;;;;;;;8.60;99.90;;;;;;5055430;28;19984;-79
2023/12/26 03:20:27;;;;;;;;;;;8.60;99.90;;;;;;5054883;28;20306;-75
2023/12/26 03:22:52;;;;;;;;;;;8.60;99.90;;;;;;5055211;28;19908;-78
2023/12/26 03:25:18;;;;;;;;;;;8.60;99.90;;;;;;5054309;28;20171;-78
2023/12/26 03:27:43;;;;;;;;;;;8.60;99.90;;;;;;5055863;28;19932;-75
2023/12/26 03:30:09;;;;;;;;;;;8.60;99.90;;;;;;5056635;28;19909;-79
2023/12/26 03:32:35;;;;;;;;;;;8.70;99.90;;;;;;5054813;28;19920;-75
2023/12/26 03:35:01;;;;;;;;;;;8.70;99.90;;;;;;5054970;28;19916;-75
2023/12/26 03:37:26;;;;;;;;;;;8.70;99.90;;;;;;5054976;28;20354;-79
2023/12/26 03:39:52;;;;;;;;;;;8.80;99.90;;;;;;5056304;28;19955;-75
2023/12/26 03:42:17;;;;;;;;;;;8.80;99.90;;;;;;5055420;28;20762;-79
2023/12/26 03:44:46;;;;;;;;;;;8.80;99.90;;;;;;5054919;28;19909;-75
2023/12/26 03:47:12;;;;;;;;;;;8.80;99.90;;;;;;5054768;28;19909;-75
2023/12/26 03:49:38;;;;;;;;;;;8.60;99.90;;;;;;5054596;28;19916;-79
2023/12/26 03:52:03;;;;;;;;;;;8.60;99.90;;;;;;5054559;28;19920;-79
2023/12/26 03:54:29;;;;;;;;;;;8.60;99.90;;;;;;5054669;28;19919;-76
2023/12/26 03:56:54;;;;;;;;;;;8.50;99.90;;;;;;5054527;28;19920;-75
2023/12/26 03:59:20;;;;;;;;;;;8.50;99.90;;;;;;5055734;28;19915;-79
2023/12/26 04:01:46;;;;;;;;;;;8.60;99.90;;;;;;5055967;28;19962;-75
2023/12/26 04:04:12;;;;;;;;;;;8.60;99.90;;;;;;5054397;28;19909;-75
2023/12/26 04:06:37;;;;;;;;;;;8.60;99.90;;;;;;5053664;28;19909;-75
2023/12/26 04:09:03;;;;;;;;;;;8.60;99.90;;;;;;5051102;28;19909;-79
2023/12/26 04:11:30;;;;;;;;;;;8.60;99.90;;;;;;5034172;28;19936;-79
2023/12/26 04:13:55;;;;;;;;;;;8.50;99.90;;;;;;5034243;28;20364;-75
2023/12/26 04:16:21;;;;;;;;;;;8.40;99.90;;;;;;5035586;28;19915;-79
2023/12/26 04:18:46;;;;;;;;;;;8.40;99.90;;;;;;5034449;28;19963;-75
2023/12/26 04:21:12;;;;;;;;;;;8.40;99.90;;;;;;5034241;28;20433;-77
2023/12/26 04:23:37;;;;;;;;;;;8.40;99.90;;;;;;5038655;28;19913;-79
2023/12/26 04:26:04;;;;;;;;;;;8.40;99.90;;;;;;5043636;28;19997;-75
2023/12/26 04:28:30;;;;;;;;;;;8.50;99.90;;;;;;5033770;28;19956;-75
2023/12/26 04:30:55;;;;;;;;;;;8.50;99.90;;;;;;5050520;28;19955;-75
2023/12/26 04:33:21;;;;;;;;;;;8.50;99.90;;;;;;5034102;28;19959;-79
2023/12/26 04:35:47;;;;;;;;;;;8.50;99.90;;;;;;5048180;28;19908;-79
2023/12/26 04:38:12;;;;;;;;;;;8.50;99.90;;;;;;5074055;28;19916;-80
2023/12/26 04:40:38;;;;;;;;;;;8.40;99.90;;;;;;5074329;28;20325;-79
2023/12/26 04:43:08;;;;;;;;;;;8.30;99.90;;;;;;5073722;28;19938;-79
2023/12/26 04:45:34;;;;;;;;;;;8.30;99.90;;;;;;5073723;28;19916;-79
2023/12/26 04:48:04;;;;;;;;;;;8.30;99.90;;;;;;5073572;28;19912;-79
2023/12/26 04:50:30;;;;;;;;;;;8.20;99.90;;;;;;5074849;28;19962;-75
2023/12/26 04:52:56;;;;;;;;;;;8.20;99.90;;;;;;5073436;28;20341;-75
2023/12/26 04:55:21;;;;;;;;;;;8.30;99.90;;;;;;5074944;28;19916;-75
2023/12/26 04:57:47;;;;;;;;;;;8.30;99.90;;;;;;5073011;28;19960;-79
2023/12/26 05:00:12;;;;;;;;;;;8.30;99.90;;;;;;5073214;28;19962;-79
2023/12/26 05:02:38;;;;;;;;;;;8.30;99.90;;;;;;5073446;28;20367;-75
2023/12/26 05:05:07;;;;;;;;;;;8.40;99.90;;;;;;5067044;28;19909;-75
2023/12/26 05:07:32;;;;;;;;;;;8.30;99.90;;;;;;5048947;28;20366;-75
2023/12/26 05:09:58;;;;;;;;;;;8.30;99.90;;;;;;5045979;28;19916;-79
2023/12/26 05:12:23;;;;;;;;;;;8.30;99.90;;;;;;5053150;28;19966;-79
2023/12/26 05:14:49;;;;;;;;;;;8.30;99.90;;;;;;5053139;28;19931;-80
2023/12/26 05:17:14;;;;;;;;;;;8.30;99.90;;;;;;5053171;28;19916;-75
2023/12/26 05:19:40;;;;;;;;;;;8.30;99.90;;;;;;5054359;28;19958;-79
2023/12/26 05:22:05;;;;;;;;;;;8.30;99.90;;;;;;5052931;28;19920;-79
2023/12/26 05:24:34;;;;;;;;;;;8.30;99.90;;;;;;5047133;28;19913;-79
2023/12/26 05:27:00;;;;;;;;;;;8.30;99.90;;;;;;5034530;28;19912;-79
2023/12/26 05:29:25;;;;;;;;;;;8.30;99.90;;;;;;5043081;28;20358;-78
2023/12/26 05:31:52;;;;;;;;;;;8.30;99.90;;;;;;5065843;28;19920;-79
2023/12/26 05:34:18;;;;;;;;;;;8.30;99.90;;;;;;5056151;28;20379;-75
2023/12/26 05:36:44;;;;;;;;;;;8.40;99.90;;;;;;5059542;28;19959;-79
2023/12/26 05:39:10;;;;;;;;;;;8.40;99.90;;;;;;5035892;28;19909;-75
2023/12/26 05:41:36;;;;;;;;;;;8.40;99.90;;;;;;5035994;28;20410;-79
2023/12/26 05:44:02;;;;;;;;;;;8.40;99.90;;;;;;5053883;28;19932;-80
2023/12/26 05:46:30;;;;;;;;;;;8.40;99.90;;;;;;5054159;28;19913;-79
2023/12/26 05:48:56;;;;;;;;;;;8.40;99.90;;;;;;5036263;28;19919;-76
2023/12/26 05:51:22;;;;;;;;;;;8.40;99.90;;;;;;5036550;28;19917;-79
2023/12/26 05:53:48;;;;;;;;;;;8.50;99.90;;;;;;5052630;28;19908;-80
2023/12/26 05:56:13;;;;;;;;;;;8.50;99.90;;;;;;5052531;28;19909;-80
2023/12/26 05:58:42;;;;;;;;;;;8.50;99.90;;;;;;5053764;28;20291;-75
2023/12/26 06:01:10;;;;;;;;;;;8.50;99.90;;;;;;5035841;28;20299;-75
2023/12/26 06:03:37;;;;;;;;;;;8.40;99.90;;;;;;5035827;28;19931;-75
2023/12/26 06:06:03;;;;;;;;;;;8.40;99.90;;;;;;5048807;28;20303;-79
2023/12/26 06:08:28;;;;;;;;;;;8.30;99.90;;;;;;5028537;28;19913;-75
2023/12/26 06:10:54;;;;;;;;;;;8.30;99.90;;;;;;5015882;28;19913;-79
2023/12/26 06:13:19;;;;;;;;;;;8.30;99.90;;;;;;5016072;28;19909;-79
2023/12/26 06:15:45;;;;;;;;;;;8.30;99.90;;;;;;5033703;28;20295;-75
2023/12/26 06:18:10;;;;;;;;;;;8.30;99.90;;;;;;5033795;28;19956;-75
2023/12/26 06:20:36;;;;;;;;;;;8.20;99.90;;;;;;5033654;28;19913;-75
2023/12/26 06:23:02;;;;;;;;;;;8.20;99.90;;;;;;5015716;28;19916;-75
2023/12/26 06:25:28;;;;;;;;;;;8.30;99.90;;;;;;5023574;28;20371;-80
2023/12/26 06:27:53;;;;;;;;;;;8.30;99.90;;;;;;5035822;28;19916;-75
2023/12/26 06:30:19;;;;;;;;;;;8.20;99.90;;;;;;5035241;28;19919;-80
2023/12/26 06:32:44;;;;;;;;;;;8.20;99.90;;;;;;5068268;28;20428;-80
2023/12/26 06:35:10;;;;;;;;;;;8.20;99.90;;;;;;5053139;28;19960;-80
2023/12/26 06:37:35;;;;;;;;;;;8.20;99.90;;;;;;5052021;28;20017;-79
2023/12/26 06:40:01;;;;;;;;;;;8.20;99.90;;;;;;5049141;28;20302;-80
2023/12/26 06:42:26;;;;;;;;;;;8.30;99.90;;;;;;5049348;28;20039;-75
2023/12/26 06:44:52;;;;;;;;;;;8.30;99.90;;;;;;5044254;28;20021;-80
2023/12/26 06:47:17;;;;;;;;;;;8.30;99.90;;;;;;5046863;28;19916;-79
2023/12/26 06:49:44;;;;;;;;;;;8.30;99.90;;;;;;5055182;28;20018;-79
2023/12/26 06:52:14;;;;;;;;;;;8.30;99.90;;;;;;5048088;28;20295;-75
2023/12/26 06:54:40;;;;;;;;;;;8.50;99.90;;;;;;5060563;28;20387;-75
2023/12/26 06:57:08;;;;;;;;;;;8.50;99.90;;;;;;5043993;28;20413;-75
2023/12/26 06:59:34;;;;;;;;;;;8.50;99.90;;;;;;5046588;28;19913;-76
2023/12/26 07:01:59;;;;;;;;;;;8.60;99.90;;;;;;5057115;28;19913;-80
2023/12/26 07:04:25;;;;;;;;;;;8.60;99.90;;;;;;5038668;28;20302;-80
2023/12/26 07:06:50;;;;;;;;;;;8.50;99.90;;;;;;5051512;28;19913;-75
2023/12/26 07:09:16;;;;;;;;;;;8.50;99.90;;;;;;5054648;28;19963;-80
2023/12/26 07:11:41;;;;;;;;;;;8.50;99.90;;;;;;5055502;28;19971;-79
2023/12/26 07:14:07;;;;;;;;;;;8.50;99.90;;;;;;5062863;28;19919;-75
2023/12/26 07:16:35;;;;;;;;;;;8.50;99.90;;;;;;5046031;28;19920;-75
2023/12/26 07:19:01;;;;;;;;;;;8.50;99.90;;;;;;5036816;28;20284;-80
2023/12/26 07:21:26;;;;;;;;;;;8.50;99.90;;;;;;5036032;28;19917;-79
2023/12/26 07:23:52;;;;;;;;;;;8.50;99.90;;;;;;5034811;28;19913;-80
2023/12/26 07:26:17;;;;;;;;;;;8.50;99.90;;;;;;5052722;28;19917;-75
2023/12/26 07:28:43;;;;;;;;;;;8.60;99.90;;;;;;5043951;28;19917;-80
2023/12/26 07:31:08;;;;;;;;;;;8.50;99.90;;;;;;5053668;28;19933;-75
2023/12/26 07:33:34;;;;;;;;;;;8.50;99.90;;;;;;5054236;28;20032;-80
2023/12/26 07:36:01;;;;;;;;;;;8.50;99.90;;;;;;5052146;28;19913;-79
2023/12/26 07:38:26;;;;;;;;;;;8.50;99.90;;;;;;5063386;28;20302;-76
2023/12/26 07:40:52;;;;;;;;;;;8.60;99.90;;;;;;5049720;28;20000;-80
2023/12/26 07:43:18;;;;;;;;;;;8.50;99.90;;;;;;5050581;28;20368;-76
2023/12/26 07:45:43;;;;;;;;;;;8.50;99.90;;;;;;5035841;28;19919;-80
2023/12/26 07:48:13;;;;;;;;;;;8.60;99.90;;;;;;5042015;28;19909;-75
2023/12/26 07:50:39;;;;;;;;;;;8.60;99.90;;;;;;5043361;28;19948;-80
2023/12/26 07:53:07;;;;;;;;;;;8.60;99.90;;;;;;5036373;28;20419;-80
2023/12/26 07:55:33;;;;;;;;;;;8.60;99.90;;;;;;5038526;28;19923;-80
2023/12/26 07:57:58;;;;;;;;;;;8.70;99.90;;;;;;5047400;28;19999;-80
2023/12/26 08:00:24;;;;;;;;;;;8.70;99.90;;;;;;5042430;28;19920;-75
2023/12/26 08:02:49;;;;;;;;;;;8.80;99.90;;;;;;5046618;28;19928;-75
2023/12/26 08:05:15;;;;;;;;;;;8.80;99.90;;;;;;5050104;28;20252;-79
2023/12/26 08:07:41;;;;;;;;;;;8.90;99.90;;;;;;5048873;28;19956;-80
2023/12/26 08:10:06;;;;;;;;;;;8.90;99.90;;;;;;5043218;28;19916;-80
2023/12/26 08:12:32;;;;;;;;;;;8.90;99.90;;;;;;5048476;28;19917;-76
2023/12/26 08:14:58;;;;;;;;;;;9.00;99.90;;;;;;5039712;28;20000;-80
2023/12/26 08:17:23;;;;;;;;;;;9.00;99.90;;;;;;5040063;28;19956;-81
2023/12/26 08:19:49;;;;;;;;;;;9.10;99.90;;;;;;5040377;28;19909;-80
2023/12/26 08:22:14;;;;;;;;;;;9.10;99.90;;;;;;5044700;28;19919;-80
2023/12/26 08:24:40;;;;;;;;;;;9.20;99.90;;;;;;5046181;28;20394;-80
2023/12/26 08:27:05;;;;;;;;;;;9.20;99.90;;;;;;5038192;28;20037;-80
2023/12/26 08:29:31;;;;;;;;;;;9.30;99.90;;;;;;5052623;28;19921;-75
2023/12/26 08:31:56;;;;;;;;;;;9.30;99.90;;;;;;5061269;28;20338;-75
2023/12/26 08:34:22;;;;;;;;;;;9.30;99.90;;;;;;5046574;28;19908;-80
2023/12/26 08:36:47;;;;;;;;;;;9.40;99.90;;;;;;5074761;28;19920;-79
2023/12/26 08:39:13;;;;;;;;;;;9.40;99.90;;;;;;5039680;28;20287;-76
2023/12/26 08:41:38;;;;;;;;;;;9.60;99.90;;;;;;5046179;28;19952;-80
2023/12/26 08:44:04;;;;;;;;;;;9.50;99.90;;;;;;5044669;28;20371;-75
2023/12/26 08:46:29;;;;;;;;;;;9.60;99.90;;;;;;5063835;28;20003;-75
2023/12/26 08:48:55;;;;;;;;;;;9.80;99.90;;;;;;5052986;28;19916;-75
2023/12/26 08:51:21;;;;;;;;;;;9.90;99.90;;;;;;5059641;28;19917;-80
2023/12/26 08:53:47;;;;;;;;;;;10.00;99.90;;;;;;5071397;28;19912;-75
2023/12/26 08:56:13;;;;;;;;;;;10.20;99.90;;;;;;5045619;28;19909;-76
2023/12/26 08:58:38;;;;;;;;;;;10.20;99.90;;;;;;5049423;28;19958;-75
2023/12/26 09:01:06;;;;;;;;;;;10.30;99.90;;;;;;5043111;28;19991;-75
2023/12/26 09:03:31;;;;;;;;;;;10.40;99.90;;;;;;5039949;28;19916;-80
2023/12/26 09:05:57;;;;;;;;;;;10.40;99.90;;;;;;5049291;28;19963;-75
2023/12/26 09:08:22;;;;;;;;;;;10.40;99.90;;;;;;5047465;28;19913;-80
2023/12/26 09:10:48;;;;;;;;;;;10.40;99.90;;;;;;5043583;28;19932;-75
2023/12/26 09:13:15;;;;;;;;;;;10.40;99.90;;;;;;5054532;28;19912;-76
2023/12/26 09:15:41;;;;;;;;;;;10.40;99.90;;;;;;5042679;28;20017;-81
2023/12/26 09:18:06;;;;;;;;;;;10.40;99.90;;;;;;5067567;28;19972;-81
2023/12/26 09:20:32;;;;;;;;;;;10.50;99.90;;;;;;5048960;28;19919;-80
2023/12/26 09:22:57;;;;;;;;;;;10.60;99.90;;;;;;5074616;28;19922;-76
2023/12/26 09:25:26;;;;;;;;;;;10.70;99.90;;;;;;5042424;28;19912;-81
2023/12/26 09:27:51;;;;;;;;;;;10.60;99.90;;;;;;5070127;28;19916;-80
2023/12/26 09:30:18;;;;;;;;;;;10.60;99.90;;;;;;5057453;28;19958;-81
2023/12/26 09:32:43;;;;;;;;;;;10.70;99.90;;;;;;5044739;28;19924;-75
2023/12/26 09:35:09;;;;;;;;;;;10.70;99.90;;;;;;5053736;28;19912;-81
2023/12/26 09:37:38;;;;;;;;;;;10.70;99.90;;;;;;5062249;28;20034;-75
2023/12/26 09:40:07;;;;;;;;;;;10.70;99.90;;;;;;5070521;28;19912;-81
2023/12/26 09:42:32;;;;;;;;;;;10.80;99.90;;;;;;5047082;28;19913;-80
2023/12/26 09:44:58;;;;;;;;;;;10.90;99.90;;;;;;5069463;28;19912;-81
2023/12/26 09:47:25;;;;;;;;;;;10.90;99.90;;;;;;5040082;28;19987;-75
2023/12/26 09:49:51;;;;;;;;;;;10.90;99.90;;;;;;5069444;28;19916;-80
2023/12/26 09:52:17;;;;;;;;;;;10.90;99.90;;;;;;5039353;28;20284;-81
2023/12/26 09:54:43;;;;;;;;;;;11.00;99.90;;;;;;5049489;28;19978;-75
2023/12/26 09:57:09;;;;;;;;;;;11.00;99.90;;;;;;5067590;28;20294;-80
2023/12/26 09:59:36;;;;;;;;;;;11.00;99.90;;;;;;5039033;28;19912;-79
2023/12/26 10:02:03;;;;;;;;;;;11.00;99.90;;;;;;5051842;28;19920;-75
2023/12/26 10:04:28;;;;;;;;;;;11.00;99.90;;;;;;5041883;28;20363;-79
2023/12/26 10:06:54;;;;;;;;;;;10.90;99.90;;;;;;5072570;28;19914;-80
2023/12/26 10:09:19;;;;;;;;;;;11.00;99.90;;;;;;5062939;28;19908;-80
2023/12/26 10:11:45;;;;;;;;;;;11.00;99.90;;;;;;5052055;28;19920;-81
2023/12/26 10:14:10;;;;;;;;;;;11.00;99.90;;;;;;5063481;28;19931;-75
2023/12/26 10:16:36;;;;;;;;;;;11.00;99.90;;;;;;5046779;28;20349;-80
2023/12/26 10:19:01;;;;;;;;;;;11.00;99.90;;;;;;5056474;28;19916;-81
2023/12/26 10:21:27;;;;;;;;;;;11.10;99.90;;;;;;5060807;28;19913;-79
2023/12/26 10:23:55;;;;;;;;;;;11.20;99.90;;;;;;5054109;28;20367;-81
2023/12/26 10:26:20;;;;;;;;;;;11.10;99.90;;;;;;5049250;28;19909;-77
2023/12/26 10:28:46;;;;;;;;;;;11.20;99.90;;;;;;5071010;28;19917;-80
2023/12/26 10:31:13;;;;;;;;;;;11.20;99.90;;;;;;5060102;28;19927;-80
2023/12/26 10:33:39;;;;;;;;;;;11.20;99.90;;;;;;5043769;28;19920;-75
2023/12/26 10:36:05;;;;;;;;;;;11.10;99.90;;;;;;5061947;28;19917;-80
2023/12/26 10:38:31;;;;;;;;;;;11.00;99.90;;;;;;5048543;28;20019;-81
2023/12/26 10:40:58;;;;;;;;;;;11.00;99.90;;;;;;5053407;28;20421;-75
2023/12/26 10:43:25;;;;;;;;;;;11.10;99.90;;;;;;5068261;28;19944;-80
2023/12/26 10:45:51;;;;;;;;;;;11.10;99.90;;;;;;5040260;28;19909;-81
2023/12/26 10:48:18;;;;;;;;;;;11.20;99.90;;;;;;5067008;28;20369;-80
2023/12/26 10:50:43;;;;;;;;;;;11.20;99.90;;;;;;5046598;28;19913;-75
2023/12/26 10:53:13;;;;;;;;;;;11.10;99.90;;;;;;5046699;28;20035;-81
2023/12/26 10:55:40;;;;;;;;;;;11.20;99.90;;;;;;5074894;28;20368;-80
2023/12/26 10:58:17;;;;;;;;;;;11.20;99.90;;;;;;5047602;28;19919;-81
2023/12/26 11:01:14;;;;;;;;;;;11.30;99.90;;;;;;5046685;28;19909;-81
2023/12/26 13:52:07;;;;;;;;;;;11.20;99.90;;;;;;5058054;28;19927;-80
2023/12/26 13:54:51;;;;;;;;;;;11.00;99.90;;;;;;5061440;28;19920;-79
2023/12/26 13:57:36;;;;;;;;;;;10.90;99.90;;;;;;5070189;28;19920;-76
2023/12/26 14:00:20;;;;;;;;;;;10.80;99.90;;;;;;5048358;28;19912;-80
2023/12/26 14:03:04;;;;;;;;;;;10.60;99.90;;;;;;5035192;28;20030;-80
2023/12/26 14:05:48;;;;;;;;;;;10.60;99.90;;;;;;5051677;28;19962;-76
2023/12/26 14:08:33;;;;;;;;;;;10.50;99.90;;;;;;5043875;28;19915;-80
2023/12/26 14:11:17;;;;;;;;;;;10.60;99.90;;;;;;5050407;28;20375;-81
2023/12/26 14:14:01;;;;;;;;;;;10.50;99.90;;;;;;5057884;28;19915;-79
2023/12/26 14:16:45;;;;;;;;;;;10.40;99.90;;;;;;5044543;28;19912;-80
2023/12/26 14:19:30;;;;;;;;;;;10.30;99.90;;;;;;5051424;28;20379;-79
2023/12/26 14:22:14;;;;;;;;;;;10.20;99.90;;;;;;5040960;28;19915;-79
2023/12/26 14:24:58;;;;;;;;;;;10.30;99.90;;;;;;5042670;28;19913;-75
2023/12/26 14:27:42;;;;;;;;;;;10.30;99.90;;;;;;5051642;28;20333;-75
2023/12/26 14:30:27;;;;;;;;;;;10.30;99.90;;;;;;5054524;28;19908;-75
2023/12/26 14:33:11;;;;;;;;;;;10.10;99.90;;;;;;5049558;28;19969;-79
2023/12/26 14:35:55;;;;;;;;;;;10.00;99.90;;;;;;5038784;28;20042;-79
2023/12/26 14:38:39;;;;;;;;;;;10.00;99.90;;;;;;5044010;28;19919;-79
2023/12/26 14:41:24;;;;;;;;;;;10.00;99.90;;;;;;5057051;28;20008;-79
2023/12/26 14:44:08;;;;;;;;;;;10.00;99.90;;;;;;5034805;28;19934;-79
2023/12/26 14:46:52;;;;;;;;;;;10.10;99.90;;;;;;5056477;28;19916;-75
2023/12/26 14:49:37;;;;;;;;;;;10.00;99.90;;;;;;5043966;28;19916;-75
2023/12/26 14:52:21;;;;;;;;;;;10.00;99.90;;;;;;5062697;28;20016;-79
2023/12/26 14:55:05;;;;;;;;;;;10.00;99.90;;;;;;5058057;28;19920;-80
2023/12/26 14:57:50;;;;;;;;;;;10.00;99.90;;;;;;5048747;28;19912;-75
2023/12/26 15:00:34;;;;;;;;;;;10.00;99.90;;;;;;5054741;28;19913;-80
2023/12/26 15:02:59;;;;;;;;;;;10.00;99.90;;;;;;5077612;28;19923;-80
2023/12/26 15:05:26;;;;;;;;;;;10.00;99.90;;;;;;5056638;28;19912;-79
2023/12/26 15:07:52;;;;;;;;;;;10.00;99.90;;;;;;5046724;28;19913;-80
2023/12/26 15:10:17;;;;;;;;;;;9.90;99.90;;;;;;5044110;28;20326;-80
2023/12/26 15:12:43;;;;;;;;;;;9.90;99.90;;;;;;5056046;28;19959;-75
2023/12/26 15:15:08;;;;;;;;;;;9.90;99.90;;;;;;5060752;28;19952;-75
2023/12/26 15:17:34;;;;;;;;;;;9.90;99.90;;;;;;5054729;28;19909;-75
2023/12/26 15:19:59;;;;;;;;;;;9.80;99.90;;;;;;5044647;28;20428;-79
2023/12/26 15:22:25;;;;;;;;;;;9.70;99.90;;;;;;5060983;28;19920;-80
2023/12/26 15:24:50;;;;;;;;;;;9.70;99.90;;;;;;5062582;28;20285;-79
2023/12/26 15:27:16;;;;;;;;;;;9.70;99.90;;;;;;5052996;28;19912;-79
2023/12/26 15:29:41;;;;;;;;;;;9.70;99.90;;;;;;5051052;28;19983;-79
2023/12/26 15:32:09;;;;;;;;;;;9.70;99.90;;;;;;5049176;28;20346;-79
2023/12/26 15:34:35;;;;;;;;;;;9.60;99.90;;;;;;5035315;28;19913;-79
2023/12/26 15:37:01;;;;;;;;;;;9.60;99.90;;;;;;5067731;28;19908;-79
2023/12/26 15:39:26;;;;;;;;;;;9.60;99.90;;;;;;5075800;28;19912;-77
2023/12/26 15:41:52;;;;;;;;;;;9.50;99.90;;;;;;5076374;28;19913;-79
2023/12/26 15:44:17;;;;;;;;;;;9.50;99.90;;;;;;5074873;28;19952;-79
2023/12/26 15:46:43;;;;;;;;;;;9.50;99.90;;;;;;5075002;28;19909;-75
2023/12/26 15:49:08;;;;;;;;;;;9.50;99.90;;;;;;5074725;28;19908;-79
2023/12/26 15:51:34;;;;;;;;;;;9.50;99.90;;;;;;5074698;28;19946;-75
2023/12/26 15:53:59;;;;;;;;;;;9.40;99.90;;;;;;5074814;28;19991;-75
2023/12/26 15:56:27;;;;;;;;;;;9.40;99.90;;;;;;5074676;28;19930;-79
2023/12/26 15:58:53;;;;;;;;;;;9.40;99.90;;;;;;5075978;28;19912;-80
2023/12/26 16:01:20;;;;;;;;;;;9.30;99.90;;;;;;5071279;28;20278;-79
2023/12/26 16:03:48;;;;;;;;;;;9.30;99.90;;;;;;5049327;28;19913;-75
2023/12/26 16:06:19;;;;;;;;;;;9.20;99.90;;;;;;5055301;28;19996;-79
2023/12/26 16:08:45;;;;;;;;;;;9.20;99.90;;;;;;5055835;28;19909;-75
2023/12/26 16:11:10;;;;;;;;;;;9.10;99.90;;;;;;5054387;28;19966;-75
2023/12/26 16:13:36;;;;;;;;;;;9.10;99.90;;;;;;5054405;28;19970;-79
2023/12/26 16:16:02;;;;;;;;;;;9.10;99.90;;;;;;5054083;28;19932;-79
2023/12/26 16:18:28;;;;;;;;;;;9.10;99.90;;;;;;5054119;28;19916;-75
2023/12/26 16:20:54;;;;;;;;;;;9.10;99.90;;;;;;5055553;28;19928;-75
2023/12/26 16:23:19;;;;;;;;;;;9.00;99.90;;;;;;5054290;28;19916;-79
2023/12/26 16:25:45;;;;;;;;;;;9.00;99.90;;;;;;5054180;28;20378;-78
2023/12/26 16:28:10;;;;;;;;;;;9.00;99.90;;;;;;5054145;28;19912;-80
2023/12/26 16:30:36;;;;;;;;;;;9.00;99.90;;;;;;5053878;28;19966;-79
2023/12/26 16:33:01;;;;;;;;;;;9.00;99.90;;;;;;5075011;28;19920;-79
2023/12/26 16:35:27;;;;;;;;;;;8.90;99.90;;;;;;5054156;28;19917;-78
2023/12/26 16:37:53;;;;;;;;;;;8.90;99.90;;;;;;5072096;28;19908;-75
2023/12/26 16:40:18;;;;;;;;;;;9.00;99.90;;;;;;5056867;28;19998;-75
2023/12/26 16:42:44;;;;;;;;;;;9.00;99.90;;;;;;5056996;28;19916;-75
2023/12/26 16:45:10;;;;;;;;;;;9.40;99.90;;;;;;5057216;28;19935;-75
2023/12/26 16:47:36;;;;;;;;;;;9.30;99.90;;;;;;5075269;28;19962;-80
2023/12/26 16:50:01;;;;;;;;;;;9.20;99.90;;;;;;5056902;28;19913;-79
2023/12/26 16:52:27;;;;;;;;;;;9.20;99.90;;;;;;5074645;28;19973;-79
2023/12/26 16:54:54;;;;;;;;;;;9.20;99.90;;;;;;5056901;28;19913;-75
2023/12/26 16:57:20;;;;;;;;;;;9.10;99.90;;;;;;5056779;28;20003;-79
2023/12/26 16:59:48;;;;;;;;;;;9.10;99.90;;;;;;5056663;28;19908;-79
2023/12/26 17:02:16;;;;;;;;;;;9.10;99.90;;;;;;5055869;28;19912;-79
2023/12/26 17:04:42;;;;;;;;;;;9.20;99.90;;;;;;5052652;28;19908;-75
2023/12/26 17:07:08;;;;;;;;;;;9.30;99.90;;;;;;5077079;28;19962;-75
2023/12/26 17:09:33;;;;;;;;;;;9.20;99.90;;;;;;5076845;28;19912;-79
2023/12/26 17:11:59;;;;;;;;;;;9.20;99.90;;;;;;5095164;28;19912;-79
2023/12/26 17:14:24;;;;;;;;;;;9.00;99.90;;;;;;5076555;28;20012;-75